Time;durP1;ratioP1;P1;durP2;ratioP2;P2;SDS_P1;SDS_P2;PMS_P1;PMS_P2;Temp;Humidity;BMP_temperature;BMP_pressure;BME280_temperature;BME280_humidity;BME280_pressure;Samples;Min_cycle;Max_cycle;Signal;HPM_P1;HPM_P2
2023/03/19 00:01:04;;;;;;;30.73;10.93;;;;;;;;;;6269869;22;20170;-89
2023/03/19 00:04:09;;;;;;;24.20;10.57;;;;;;;;;;6271514;22;20165;-92
2023/03/19 00:07:15;;;;;;;31.67;10.87;;;;;;;;;;6270637;22;20489;-88
2023/03/19 00:10:20;;;;;;;20.37;9.93;;;;;;;;;;6271639;22;20181;-91
2023/03/19 00:13:27;;;;;;;22.10;9.47;;;;;;;;;;6271770;22;20206;-89
2023/03/19 00:16:32;;;;;;;22.90;10.03;;;;;;;;;;6271604;22;20209;-87
2023/03/19 00:19:37;;;;;;;23.30;9.37;;;;;;;;;;6272831;22;20664;-89
2023/03/19 00:22:43;;;;;;;20.50;10.07;;;;;;;;;;6271909;22;20681;-90
2023/03/19 00:25:48;;;;;;;24.70;10.07;;;;;;;;;;6271834;22;20158;-89
2023/03/19 00:28:54;;;;;;;21.53;9.33;;;;;;;;;;6271466;22;20166;-89
2023/03/19 00:32:00;;;;;;;24.43;9.47;;;;;;;;;;6268951;22;20233;-89
2023/03/19 00:35:06;;;;;;;23.40;9.90;;;;;;;;;;6269626;22;20173;-88
2023/03/19 00:38:11;;;;;;;26.07;10.83;;;;;;;;;;6268853;22;20267;-90
2023/03/19 00:41:17;;;;;;;24.57;11.30;;;;;;;;;;6270193;22;20496;-90
2023/03/19 00:44:23;;;;;;;24.87;11.30;;;;;;;;;;6269757;22;20173;-91
2023/03/19 00:47:28;;;;;;;29.50;10.43;;;;;;;;;;6270255;22;20161;-90
2023/03/19 00:50:33;;;;;;;26.07;11.03;;;;;;;;;;6270073;22;20224;-86
2023/03/19 00:53:39;;;;;;;24.63;10.80;;;;;;;;;;6271125;22;20170;-88
2023/03/19 00:56:44;;;;;;;24.23;9.93;;;;;;;;;;6270750;22;20149;-90
2023/03/19 00:59:51;;;;;;;26.30;10.70;;;;;;;;;;6270557;22;20661;-87
2023/03/19 01:03:02;;;;;;;24.47;11.23;;;;;;;;;;6270059;22;20186;-91
2023/03/19 01:06:08;;;;;;;22.70;10.03;;;;;;;;;;6269862;22;20169;-88
2023/03/19 01:09:13;;;;;;;24.03;9.60;;;;;;;;;;6268713;22;20524;-90
2023/03/19 01:12:19;;;;;;;24.83;10.10;;;;;;;;;;6271443;22;20173;-93
2023/03/19 01:15:25;;;;;;;22.50;10.27;;;;;;;;;;6270885;22;20165;-88
2023/03/19 01:18:30;;;;;;;20.93;9.73;;;;;;;;;;6288495;22;20795;-91
2023/03/19 01:21:35;;;;;;;24.90;10.17;;;;;;;;;;6269676;22;20169;-86
2023/03/19 01:24:41;;;;;;;20.13;9.40;;;;;;;;;;6269349;22;20285;-91
2023/03/19 01:27:47;;;;;;;21.43;9.23;;;;;;;;;;6269462;22;20165;-91
2023/03/19 01:30:58;;;;;;;26.93;11.70;;;;;;;;;;6271384;22;20165;-89
2023/03/19 01:34:22;;;;;;;21.10;9.50;;;;;;;;;;6270629;22;20177;-86
2023/03/19 01:37:32;;;;;;;22.10;10.17;;;;;;;;;;6269836;22;20154;-87
2023/03/19 01:40:44;;;;;;;27.57;10.57;;;;;;;;;;6270305;22;20181;-90
2023/03/19 01:43:49;;;;;;;21.13;9.90;;;;;;;;;;6270817;22;20492;-88
2023/03/19 01:47:20;;;;;;;19.43;9.20;;;;;;;;;;6269639;22;20227;-89
2023/03/19 01:50:45;;;;;;;21.33;9.93;;;;;;;;;;6288457;22;20211;-85
2023/03/19 01:54:18;;;;;;;20.37;9.93;;;;;;;;;;6276771;22;20235;-89
2023/03/19 01:57:42;;;;;;;22.20;9.33;;;;;;;;;;6287160;22;20616;-91
2023/03/19 02:05:24;;;;;;;17.50;8.60;;;;;;;;;;6288236;22;20178;-90
2023/03/19 02:08:29;;;;;;;20.00;9.13;;;;;;;;;;6268141;22;20170;-88
2023/03/19 02:11:34;;;;;;;23.60;9.63;;;;;;;;;;6269738;22;20169;-91
2023/03/19 02:14:39;;;;;;;22.03;9.30;;;;;;;;;;6269331;22;20575;-91
2023/03/19 02:17:45;;;;;;;20.83;9.33;;;;;;;;;;6270669;22;20166;-91
2023/03/19 02:20:59;;;;;;;21.27;9.83;;;;;;;;;;6270660;22;20719;-88
2023/03/19 02:24:10;;;;;;;20.40;9.00;;;;;;;;;;6269179;22;20192;-86
2023/03/19 02:27:25;;;;;;;30.37;11.27;;;;;;;;;;6268812;22;20609;-86
2023/03/19 02:30:32;;;;;;;24.73;10.77;;;;;;;;;;6270132;22;20173;-89
2023/03/19 02:33:42;;;;;;;25.13;9.70;;;;;;;;;;6269322;22;20261;-90
2023/03/19 02:36:50;;;;;;;23.10;9.60;;;;;;;;;;6266812;22;20161;-90
2023/03/19 02:39:57;;;;;;;25.17;9.60;;;;;;;;;;6269041;22;20169;-86
2023/03/19 02:43:03;;;;;;;20.83;10.07;;;;;;;;;;6269274;22;20178;-92
2023/03/19 02:46:10;;;;;;;23.50;10.17;;;;;;;;;;6269325;22;20177;-90
2023/03/19 02:49:15;;;;;;;20.10;9.80;;;;;;;;;;6269736;22;20580;-92
2023/03/19 02:52:21;;;;;;;22.40;9.87;;;;;;;;;;6267964;22;20175;-92
2023/03/19 02:55:26;;;;;;;22.17;9.63;;;;;;;;;;6268224;22;20173;-91
2023/03/19 02:58:32;;;;;;;26.00;10.33;;;;;;;;;;6270376;22;20166;-92
2023/03/19 03:01:38;;;;;;;22.97;10.47;;;;;;;;;;6268413;22;20248;-90
2023/03/19 03:04:44;;;;;;;21.30;9.53;;;;;;;;;;6268828;22;20236;-90
2023/03/19 03:07:49;;;;;;;23.67;9.80;;;;;;;;;;6268822;22;20169;-89
2023/03/19 03:10:55;;;;;;;22.73;9.10;;;;;;;;;;6269867;22;20196;-90
2023/03/19 03:14:01;;;;;;;27.23;10.27;;;;;;;;;;6270644;22;20281;-89
2023/03/19 03:17:07;;;;;;;21.87;9.67;;;;;;;;;;6270923;22;20166;-90
2023/03/19 03:20:35;;;;;;;23.23;10.27;;;;;;;;;;6269328;22;20790;-90
2023/03/19 03:23:40;;;;;;;26.27;10.43;;;;;;;;;;6268719;22;20161;-88
2023/03/19 03:26:46;;;;;;;27.97;10.33;;;;;;;;;;6269461;22;20166;-87
2023/03/19 03:29:55;;;;;;;22.17;9.57;;;;;;;;;;6270058;22;20177;-89
2023/03/19 03:33:00;;;;;;;19.03;9.10;;;;;;;;;;6270404;22;20177;-89
2023/03/19 03:36:05;;;;;;;19.77;9.03;;;;;;;;;;6271179;22;20166;-90
2023/03/19 03:39:11;;;;;;;25.10;9.53;;;;;;;;;;6269895;22;20161;-86
2023/03/19 03:42:17;;;;;;;22.20;9.57;;;;;;;;;;6270203;22;20182;-89
2023/03/19 03:45:23;;;;;;;26.67;9.70;;;;;;;;;;6269683;22;20177;-89
2023/03/19 03:48:30;;;;;;;20.43;9.93;;;;;;;;;;6269765;22;20162;-91
2023/03/19 03:51:36;;;;;;;21.90;9.13;;;;;;;;;;6269373;22;20162;-87
2023/03/19 03:54:41;;;;;;;23.43;10.20;;;;;;;;;;6269612;22;20170;-89
2023/03/19 03:57:46;;;;;;;19.87;9.27;;;;;;;;;;6268946;22;20223;-87
2023/03/19 04:04:29;;;;;;;24.10;9.47;;;;;;;;;;6270659;22;20235;-90
2023/03/19 04:07:35;;;;;;;22.77;9.87;;;;;;;;;;6271738;22;20197;-89
2023/03/19 04:10:41;;;;;;;23.63;9.13;;;;;;;;;;6271380;22;20205;-90
2023/03/19 04:13:46;;;;;;;21.87;9.57;;;;;;;;;;6270213;22;20162;-91
2023/03/19 04:16:51;;;;;;;20.83;9.50;;;;;;;;;;6272755;22;20153;-92
2023/03/19 04:20:06;;;;;;;20.97;9.40;;;;;;;;;;6272756;22;20192;-90
2023/03/19 04:23:11;;;;;;;19.57;9.53;;;;;;;;;;6272911;22;20154;-85
2023/03/19 04:26:16;;;;;;;18.57;9.43;;;;;;;;;;6272349;22;20181;-89
2023/03/19 04:29:22;;;;;;;20.33;9.13;;;;;;;;;;6271201;22;20170;-88
2023/03/19 04:32:27;;;;;;;20.80;8.90;;;;;;;;;;6272226;22;20166;-89
2023/03/19 04:35:35;;;;;;;29.40;10.10;;;;;;;;;;6271590;22;20843;-89
2023/03/19 04:38:40;;;;;;;24.27;9.60;;;;;;;;;;6272334;22;20153;-89
2023/03/19 04:41:45;;;;;;;27.83;14.83;;;;;;;;;;6271467;22;20192;-86
2023/03/19 04:45:07;;;;;;;32.30;12.87;;;;;;;;;;6271576;22;20189;-89
2023/03/19 04:48:12;;;;;;;23.50;9.77;;;;;;;;;;6271989;22;20165;-88
2023/03/19 04:51:20;;;;;;;22.03;9.50;;;;;;;;;;6270731;22;20170;-88
2023/03/19 04:54:27;;;;;;;18.37;8.80;;;;;;;;;;6271040;22;20162;-87
2023/03/19 04:57:32;;;;;;;23.70;9.73;;;;;;;;;;6271162;22;20181;-90
2023/03/19 05:00:48;;;;;;;21.00;9.47;;;;;;;;;;6268734;22;20568;-89
2023/03/19 05:03:58;;;;;;;20.77;9.77;;;;;;;;;;6269050;22;20170;-87
2023/03/19 05:07:07;;;;;;;21.47;10.20;;;;;;;;;;6269942;22;20165;-90
2023/03/19 05:10:13;;;;;;;19.30;9.23;;;;;;;;;;6268771;22;20560;-90
2023/03/19 05:17:45;;;;;;;20.27;8.73;;;;;;;;;;6287624;22;20154;-88
2023/03/19 05:21:21;;;;;;;23.40;10.10;;;;;;;;;;6266732;22;20193;-91
2023/03/19 05:24:29;;;;;;;22.80;9.93;;;;;;;;;;6268057;22;20213;-87
2023/03/19 05:27:35;;;;;;;21.00;9.97;;;;;;;;;;6268469;22;20177;-88
2023/03/19 05:30:47;;;;;;;20.43;9.00;;;;;;;;;;6268154;22;20226;-89
2023/03/19 05:33:59;;;;;;;23.47;9.50;;;;;;;;;;6266461;22;20146;-93
2023/03/19 05:37:07;;;;;;;22.70;9.63;;;;;;;;;;6267466;22;20177;-90
2023/03/19 05:40:15;;;;;;;20.67;9.43;;;;;;;;;;6268004;22;20256;-90
2023/03/19 05:43:22;;;;;;;19.37;8.77;;;;;;;;;;6267792;22;20617;-87
2023/03/19 05:46:29;;;;;;;19.90;9.33;;;;;;;;;;6267837;22;20178;-90
2023/03/19 05:49:33;;;;;;;24.67;8.80;;;;;;;;;;6267214;22;20170;-89
2023/03/19 05:52:38;;;;;;;21.20;9.10;;;;;;;;;;6267686;22;20216;-89
2023/03/19 05:55:45;;;;;;;20.83;8.30;;;;;;;;;;6266179;22;20205;-91
2023/03/19 05:58:51;;;;;;;19.17;9.00;;;;;;;;;;6267270;22;20182;-90
2023/03/19 06:02:00;;;;;;;25.63;9.27;;;;;;;;;;6267304;22;20188;-91
2023/03/19 06:05:07;;;;;;;20.20;9.03;;;;;;;;;;6267355;22;20616;-90
2023/03/19 06:08:12;;;;;;;20.43;9.03;;;;;;;;;;6266441;22;20169;-89
2023/03/19 06:11:48;;;;;;;19.47;8.90;;;;;;;;;;6285969;22;20170;-90
2023/03/19 06:15:19;;;;;;;16.30;8.67;;;;;;;;;;6276663;22;20185;-87
2023/03/19 06:18:44;;;;;;;18.67;9.13;;;;;;;;;;6268365;22;20161;-90
2023/03/19 06:21:53;;;;;;;23.37;8.97;;;;;;;;;;6268283;22;20247;-88
2023/03/19 06:24:58;;;;;;;18.30;8.17;;;;;;;;;;6269863;22;20245;-90
2023/03/19 06:28:05;;;;;;;17.80;8.03;;;;;;;;;;6270123;22;20157;-90
2023/03/19 06:31:16;;;;;;;16.47;8.00;;;;;;;;;;6270394;22;20157;-88
2023/03/19 06:34:40;;;;;;;18.90;8.20;;;;;;;;;;6269573;22;20190;-90
2023/03/19 06:37:46;;;;;;;18.50;8.47;;;;;;;;;;6268725;22;20173;-90
2023/03/19 06:40:51;;;;;;;20.47;8.73;;;;;;;;;;6268810;22;20208;-88
2023/03/19 06:43:58;;;;;;;19.83;8.70;;;;;;;;;;6267503;22;20174;-88
2023/03/19 06:47:04;;;;;;;18.10;8.57;;;;;;;;;;6268655;22;20170;-89
2023/03/19 06:50:10;;;;;;;18.83;8.40;;;;;;;;;;6270913;22;20201;-90
2023/03/19 06:53:15;;;;;;;22.73;7.93;;;;;;;;;;6270026;22;20165;-88
2023/03/19 06:56:21;;;;;;;23.80;8.80;;;;;;;;;;6269770;22;20506;-91
2023/03/19 06:59:27;;;;;;;18.53;7.83;;;;;;;;;;6268895;22;20212;-89
2023/03/19 07:06:08;;;;;;;20.17;8.60;;;;;;;;;;6270642;22;20209;-90
2023/03/19 07:09:13;;;;;;;15.00;7.87;;;;;;;;;;6268965;22;20188;-90
2023/03/19 07:12:18;;;;;;;17.53;8.00;;;;;;;;;;6269278;22;20621;-90
2023/03/19 07:15:25;;;;;;;19.13;8.13;;;;;;;;;;6267507;22;20157;-92
2023/03/19 07:18:30;;;;;;;18.77;8.50;;;;;;;;;;6268257;22;20230;-88
2023/03/19 07:21:40;;;;;;;21.33;8.20;;;;;;;;;;6267537;22;20265;-90
2023/03/19 07:24:46;;;;;;;18.67;9.00;;;;;;;;;;6271647;22;20507;-88
2023/03/19 07:27:51;;;;;;;23.87;8.70;;;;;;;;;;6270846;22;20221;-92
2023/03/19 07:30:58;;;;;;;12.60;7.50;;;;;;;;;;6270355;22;20826;-91
2023/03/19 07:34:04;;;;;;;17.57;8.47;;;;;;;;;;6273824;22;20169;-89
2023/03/19 07:37:10;;;;;;;17.10;7.83;;;;;;;;;;6276043;22;20166;-91
2023/03/19 07:40:15;;;;;;;18.27;8.53;;;;;;;;;;6277118;22;20224;-92
2023/03/19 07:43:21;;;;;;;16.37;7.80;;;;;;;;;;6278042;22;20189;-88
2023/03/19 07:46:28;;;;;;;26.67;8.03;;;;;;;;;;6275489;22;20258;-88
2023/03/19 07:49:34;;;;;;;13.67;7.43;;;;;;;;;;6274907;22;20493;-89
2023/03/19 07:52:40;;;;;;;18.53;8.77;;;;;;;;;;6274480;22;20181;-91
2023/03/19 07:55:46;;;;;;;14.20;7.47;;;;;;;;;;6272893;22;20221;-90
2023/03/19 07:58:52;;;;;;;16.57;8.30;;;;;;;;;;6277562;22;20170;-91
2023/03/19 08:02:23;;;;;;;16.37;7.43;;;;;;;;;;6272183;22;20242;-88
2023/03/19 08:05:30;;;;;;;14.27;6.90;;;;;;;;;;6274489;22;20200;-92
2023/03/19 08:08:35;;;;;;;16.93;8.13;;;;;;;;;;6273072;22;20248;-91
2023/03/19 08:11:40;;;;;;;20.33;7.57;;;;;;;;;;6273891;22;20234;-92
2023/03/19 08:14:45;;;;;;;16.13;7.95;;;;;;;;;;6275559;22;20583;-88
2023/03/19 08:17:57;;;;;;;16.20;7.25;;;;;;;;;;6269927;22;20174;-90
2023/03/19 08:21:06;;;;;;;25.08;7.45;;;;;;;;;;6276027;22;20232;-90
2023/03/19 08:24:12;;;;;;;15.45;7.75;;;;;;;;;;6273303;22;20177;-88
2023/03/19 08:27:17;;;;;;;20.85;7.75;;;;;;;;;;6274942;22;20205;-89
2023/03/19 08:30:23;;;;;;;19.05;7.95;;;;;;;;;;6273011;22;20174;-91
2023/03/19 08:33:28;;;;;;;15.70;7.85;;;;;;;;;;6275097;22;20173;-90
2023/03/19 08:36:36;;;;;;;18.58;8.05;;;;;;;;;;6271751;22;20170;-89
2023/03/19 08:39:42;;;;;;;18.85;7.85;;;;;;;;;;6275003;22;20170;-88
2023/03/19 08:42:47;;;;;;;23.08;8.07;;;;;;;;;;6274267;22;20659;-93
2023/03/19 08:45:52;;;;;;;15.02;7.00;;;;;;;;;;6274035;22;20166;-88
2023/03/19 08:48:57;;;;;;;20.35;7.97;;;;;;;;;;6272363;22;20218;-89
2023/03/19 08:52:04;;;;;;;16.85;8.27;;;;;;;;;;6275406;22;20200;-87
2023/03/19 08:55:10;;;;;;;14.52;7.78;;;;;;;;;;6272020;22;20214;-90
2023/03/19 08:58:15;;;;;;;17.10;7.85;;;;;;;;;;6273284;22;20246;-89
2023/03/19 09:01:22;;;;;;;13.77;7.82;;;;;;;;;;6271627;22;20236;-88
2023/03/19 09:04:35;;;;;;;18.13;8.38;;;;;;;;;;6274049;22;20165;-92
2023/03/19 09:07:42;;;;;;;17.17;7.55;;;;;;;;;;6272399;22;20166;-87
2023/03/19 09:10:49;;;;;;;14.25;7.28;;;;;;;;;;6273467;22;20216;-88
2023/03/19 09:13:54;;;;;;;17.48;6.90;;;;;;;;;;6274445;22;20165;-90
2023/03/19 09:16:59;;;;;;;17.95;8.05;;;;;;;;;;6273611;22;20169;-88
2023/03/19 09:20:32;;;;;;;17.60;7.65;;;;;;;;;;6273261;22;20601;-87
2023/03/19 09:23:39;;;;;;;16.60;7.82;;;;;;;;;;6274323;22;20162;-91
2023/03/19 09:26:45;;;;;;;17.70;8.15;;;;;;;;;;6273786;22;20234;-88
2023/03/19 09:29:50;;;;;;;15.18;7.85;;;;;;;;;;6276035;22;20201;-87
2023/03/19 09:32:55;;;;;;;14.18;7.82;;;;;;;;;;6275013;22;20170;-89
2023/03/19 09:36:01;;;;;;;18.90;7.97;;;;;;;;;;6274148;22;20162;-89
2023/03/19 09:39:08;;;;;;;18.00;8.38;;;;;;;;;;6274017;22;20162;-91
2023/03/19 09:42:18;;;;;;;15.90;7.75;;;;;;;;;;6274098;22;20193;-93
2023/03/19 09:45:24;;;;;;;15.95;7.65;;;;;;;;;;6275197;22;20161;-89
2023/03/19 09:48:32;;;;;;;14.20;7.97;;;;;;;;;;6273399;22;20210;-89
2023/03/19 09:51:41;;;;;;;16.35;7.68;;;;;;;;;;6273980;22;20170;-88
2023/03/19 09:54:51;;;;;;;15.32;8.00;;;;;;;;;;6272093;22;20255;-92
2023/03/19 09:57:57;;;;;;;15.32;7.80;;;;;;;;;;6273142;22;20337;-92
2023/03/19 10:01:39;;;;;;;19.15;8.52;;;;;;;;;;6272304;22;20168;-89
2023/03/19 10:04:53;;;;;;;14.38;8.07;;;;;;;;;;6271828;22;20158;-90
2023/03/19 10:08:06;;;;;;;12.38;7.60;;;;;;;;;;6270973;22;20233;-91
2023/03/19 10:11:25;;;;;;;14.60;8.40;;;;;;;;;;6274490;22;20185;-92
2023/03/19 10:14:44;;;;;;;17.38;8.63;;;;;;;;;;6270807;22;20162;-91
2023/03/19 10:17:55;;;;;;;13.38;8.35;;;;;;;;;;6269468;22;20497;-89
2023/03/19 10:21:12;;;;;;;16.23;8.55;;;;;;;;;;6273171;22;20211;-94
2023/03/19 10:24:22;;;;;;;18.20;9.27;;;;;;;;;;6272933;22;20692;-88
2023/03/19 10:27:29;;;;;;;16.70;8.85;;;;;;;;;;6272177;22;20166;-91
2023/03/19 10:30:35;;;;;;;14.32;8.45;;;;;;;;;;6271348;22;20170;-92
2023/03/19 10:33:45;;;;;;;14.20;8.57;;;;;;;;;;6275397;22;20201;-87
2023/03/19 10:36:51;;;;;;;17.17;8.77;;;;;;;;;;6274400;22;20563;-92
2023/03/19 10:39:57;;;;;;;19.15;10.18;;;;;;;;;;6275691;22;20170;-91
2023/03/19 11:50:36;;;;;;;23.35;11.50;;;;;;;;;;6254933;22;20570;-91
2023/03/19 11:53:51;;;;;;;17.23;10.50;;;;;;;;;;6276175;22;20161;-87
2023/03/19 11:57:00;;;;;;;20.65;10.15;;;;;;;;;;6272444;22;20654;-90
2023/03/19 12:00:15;;;;;;;17.92;10.27;;;;;;;;;;6272375;22;20616;-91
2023/03/19 12:03:45;;;;;;;23.25;10.50;;;;;;;;;;6276850;22;20193;-91
2023/03/19 12:06:55;;;;;;;23.17;10.98;;;;;;;;;;6276340;22;20166;-87
2023/03/19 12:10:08;;;;;;;18.70;10.13;;;;;;;;;;6278102;22;20170;-92
2023/03/19 12:13:22;;;;;;;20.48;10.30;;;;;;;;;;6278299;22;20230;-90
2023/03/19 12:16:30;;;;;;;21.63;10.55;;;;;;;;;;6278025;22;20189;-89
2023/03/19 12:23:37;;;;;;;20.23;9.93;;;;;;;;;;6277053;22;20679;-86
2023/03/19 12:26:49;;;;;;;19.30;10.10;;;;;;;;;;6274343;22;20181;-91
2023/03/19 12:29:58;;;;;;;20.55;10.32;;;;;;;;;;6275477;22;20154;-91
2023/03/19 12:33:10;;;;;;;26.52;10.45;;;;;;;;;;6279928;22;20162;-88
2023/03/19 12:36:18;;;;;;;22.33;10.00;;;;;;;;;;6294626;22;20227;-90
2023/03/19 12:39:27;;;;;;;21.48;10.43;;;;;;;;;;6277236;22;20232;-93
2023/03/19 12:42:35;;;;;;;19.52;9.57;;;;;;;;;;6274953;22;20269;-92
2023/03/19 12:45:43;;;;;;;21.13;9.68;;;;;;;;;;6278477;22;20157;-90
2023/03/19 12:48:51;;;;;;;22.75;10.13;;;;;;;;;;6278010;22;20232;-88
2023/03/19 12:52:00;;;;;;;18.98;9.68;;;;;;;;;;6274541;22;20193;-87
2023/03/19 12:55:15;;;;;;;21.10;9.93;;;;;;;;;;6274171;22;20166;-87
2023/03/19 12:58:23;;;;;;;23.08;10.40;;;;;;;;;;6278784;22;20182;-91
2023/03/19 13:01:39;;;;;;;18.83;10.38;;;;;;;;;;6271867;22;20170;-89
2023/03/19 13:04:49;;;;;;;21.17;10.30;;;;;;;;;;6271731;22;20245;-91
2023/03/19 13:07:59;;;;;;;22.90;10.57;;;;;;;;;;6272728;22;20177;-89
2023/03/19 13:11:11;;;;;;;24.45;12.52;;;;;;;;;;6273152;22;20161;-89
2023/03/19 13:14:39;;;;;;;26.33;11.70;;;;;;;;;;6271431;22;20154;-89
2023/03/19 13:17:50;;;;;;;25.23;11.82;;;;;;;;;;6277785;22;20213;-89
2023/03/19 13:21:13;;;;;;;22.60;12.13;;;;;;;;;;6280563;22;20648;-92
2023/03/19 13:24:22;;;;;;;23.42;11.90;;;;;;;;;;6277222;22;20170;-91
2023/03/19 13:27:31;;;;;;;27.52;12.70;;;;;;;;;;6276042;22;20170;-89
2023/03/19 13:30:38;;;;;;;27.95;12.57;;;;;;;;;;6276022;22;20500;-90
2023/03/19 13:33:56;;;;;;;24.05;10.90;;;;;;;;;;6275690;22;20173;-91
2023/03/19 13:37:03;;;;;;;22.92;9.95;;;;;;;;;;6275089;22;20181;-87
2023/03/19 13:40:31;;;;;;;21.33;10.02;;;;;;;;;;6277067;22;20170;-90
2023/03/19 13:44:02;;;;;;;21.05;9.80;;;;;;;;;;6271368;22;20189;-90
2023/03/19 13:47:27;;;;;;;21.33;10.32;;;;;;;;;;6270077;22;20169;-92
2023/03/19 13:50:54;;;;;;;22.88;9.75;;;;;;;;;;6272896;22;20181;-91
2023/03/19 13:54:10;;;;;;;23.10;9.38;;;;;;;;;;6271416;22;20244;-91
2023/03/19 13:57:34;;;;;;;18.77;9.48;;;;;;;;;;6274183;22;20341;-89
2023/03/19 14:01:02;;;;;;;16.98;9.00;;;;;;;;;;6273133;22;20277;-88
2023/03/19 14:04:18;;;;;;;19.95;10.23;;;;;;;;;;6272955;22;20212;-91
2023/03/19 14:07:26;;;;;;;18.85;9.35;;;;;;;;;;6271784;22;20162;-92
2023/03/19 14:10:32;;;;;;;16.52;8.73;;;;;;;;;;6272050;22;20165;-93
2023/03/19 14:13:41;;;;;;;15.43;8.55;;;;;;;;;;6268661;22;20169;-93
2023/03/19 14:16:46;;;;;;;15.02;8.57;;;;;;;;;;6270473;22;20146;-90
2023/03/19 14:20:07;;;;;;;16.65;9.35;;;;;;;;;;6270211;22;20169;-92
2023/03/19 14:23:20;;;;;;;17.08;8.98;;;;;;;;;;6268974;22;20190;-89
2023/03/19 14:26:27;;;;;;;17.00;8.63;;;;;;;;;;6269927;22;20165;-89
2023/03/19 14:29:35;;;;;;;17.58;10.02;;;;;;;;;;6270122;22;20182;-89
2023/03/19 14:32:46;;;;;;;16.42;8.15;;;;;;;;;;6270475;22;20170;-91
2023/03/19 14:36:06;;;;;;;19.40;8.68;;;;;;;;;;6270974;22;20219;-88
2023/03/19 14:39:20;;;;;;;14.48;8.32;;;;;;;;;;6269838;22;20167;-90
2023/03/19 14:42:28;;;;;;;16.73;8.70;;;;;;;;;;6268251;22;20244;-91
2023/03/19 14:45:47;;;;;;;19.35;8.23;;;;;;;;;;6268627;22;20777;-87
2023/03/19 14:49:08;;;;;;;14.57;7.18;;;;;;;;;;6268231;22;20222;-93
2023/03/19 14:52:15;;;;;;;13.77;7.10;;;;;;;;;;6270492;22;20240;-90
2023/03/19 14:55:33;;;;;;;12.60;6.80;;;;;;;;;;6273242;22;20747;-90
2023/03/19 14:58:38;;;;;;;15.73;7.38;;;;;;;;;;6273339;22;20158;-89
2023/03/19 15:05:20;;;;;;;15.05;6.95;;;;;;;;;;6270736;22;20181;-89
2023/03/19 15:08:28;;;;;;;12.35;6.07;;;;;;;;;;6274099;22;20193;-88
2023/03/19 15:11:45;;;;;;;11.77;5.68;;;;;;;;;;6269191;22;20168;-88
2023/03/19 15:14:57;;;;;;;12.90;6.03;;;;;;;;;;6270286;22;20281;-89
2023/03/19 15:18:07;;;;;;;15.45;6.43;;;;;;;;;;6268933;22;20169;-89
2023/03/19 15:21:19;;;;;;;13.10;6.00;;;;;;;;;;6269132;22;20244;-90
2023/03/19 15:24:25;;;;;;;11.55;6.20;;;;;;;;;;6270590;22;20189;-93
2023/03/19 15:27:32;;;;;;;17.00;6.90;;;;;;;;;;6269223;22;20189;-88
2023/03/19 15:30:38;;;;;;;11.05;6.05;;;;;;;;;;6272688;22;20213;-90
2023/03/19 15:33:44;;;;;;;15.55;7.15;;;;;;;;;;6273187;22;20405;-91
2023/03/19 15:36:52;;;;;;;11.40;5.80;;;;;;;;;;6273713;22;20198;-89
2023/03/19 17:51:42;;;;;;;15.90;5.20;;;;;;;;;;6270150;22;20234;-89
2023/03/19 17:54:48;;;;;;;11.63;5.65;;;;;;;;;;6290019;22;20284;-88
2023/03/19 17:57:54;;;;;;;11.13;5.18;;;;;;;;;;6271593;22;20193;-91
2023/03/19 18:01:03;;;;;;;14.13;5.63;;;;;;;;;;6291030;22;20173;-92
2023/03/19 18:04:11;;;;;;;14.48;6.30;;;;;;;;;;6271149;22;20206;-91
2023/03/19 18:07:27;;;;;;;12.77;6.50;;;;;;;;;;6291589;22;20170;-89
2023/03/19 18:10:33;;;;;;;19.92;6.70;;;;;;;;;;6287979;22;20169;-91
2023/03/19 18:13:38;;;;;;;12.80;6.47;;;;;;;;;;6288449;22;20625;-90
2023/03/19 18:16:44;;;;;;;14.32;6.60;;;;;;;;;;6286953;22;20186;-88
2023/03/19 18:19:53;;;;;;;16.70;6.80;;;;;;;;;;6270011;22;20181;-88
2023/03/19 18:23:00;;;;;;;18.35;7.72;;;;;;;;;;6287741;22;20278;-88
2023/03/19 18:26:05;;;;;;;22.35;8.93;;;;;;;;;;6286469;22;20185;-89
2023/03/19 18:29:11;;;;;;;12.93;7.22;;;;;;;;;;6286851;22;20169;-88
2023/03/19 18:32:17;;;;;;;13.63;6.05;;;;;;;;;;6287246;22;20166;-91
2023/03/19 18:35:23;;;;;;;15.15;5.95;;;;;;;;;;6285819;22;20280;-92
2023/03/19 18:38:30;;;;;;;25.10;10.93;;;;;;;;;;6267780;22;20165;-90
2023/03/19 18:41:35;;;;;;;23.67;10.07;;;;;;;;;;6266821;22;20170;-89
2023/03/19 18:44:43;;;;;;;18.33;9.88;;;;;;;;;;6267490;22;20194;-90
2023/03/19 18:47:48;;;;;;;17.70;8.88;;;;;;;;;;6285919;22;20173;-92
2023/03/19 18:50:53;;;;;;;19.05;9.27;;;;;;;;;;6286368;22;20193;-90
2023/03/19 18:54:00;;;;;;;19.48;9.05;;;;;;;;;;6286274;22;20264;-90
2023/03/19 18:57:35;;;;;;;18.38;8.93;;;;;;;;;;6283785;22;20236;-92
2023/03/19 19:00:44;;;;;;;21.58;9.52;;;;;;;;;;6284640;22;20264;-89
2023/03/19 19:03:49;;;;;;;17.85;8.60;;;;;;;;;;6285960;22;20184;-89
2023/03/19 19:06:55;;;;;;;24.08;10.38;;;;;;;;;;6292876;22;20170;-90
2023/03/19 19:10:04;;;;;;;25.17;10.00;;;;;;;;;;6270084;22;20172;-87
2023/03/19 19:13:14;;;;;;;54.22;23.02;;;;;;;;;;6270055;22;20200;-86
2023/03/19 19:16:22;;;;;;;34.28;14.20;;;;;;;;;;6271414;22;20332;-89
2023/03/19 19:19:28;;;;;;;23.38;8.85;;;;;;;;;;6271802;22;20169;-91
2023/03/19 19:22:34;;;;;;;20.95;8.68;;;;;;;;;;6287135;22;20165;-89
2023/03/19 19:25:40;;;;;;;20.52;9.20;;;;;;;;;;6285328;22;20246;-89
2023/03/19 19:28:46;;;;;;;29.17;11.77;;;;;;;;;;6289247;22;20150;-89
2023/03/19 19:31:51;;;;;;;23.38;11.43;;;;;;;;;;6271905;22;20173;-92
2023/03/19 19:34:56;;;;;;;29.25;11.52;;;;;;;;;;6270717;22;20304;-88
2023/03/19 19:38:01;;;;;;;24.40;10.88;;;;;;;;;;6288981;22;20166;-88
2023/03/19 19:41:11;;;;;;;27.38;11.85;;;;;;;;;;6271187;22;20166;-91
2023/03/19 19:44:19;;;;;;;22.35;11.07;;;;;;;;;;6272208;22;20181;-89
2023/03/19 19:47:24;;;;;;;21.00;10.27;;;;;;;;;;6272662;22;20161;-91
2023/03/19 19:50:30;;;;;;;20.02;9.48;;;;;;;;;;6272639;22;20165;-89
2023/03/19 19:53:36;;;;;;;21.98;10.52;;;;;;;;;;6294072;22;20166;-90
2023/03/19 19:56:43;;;;;;;20.15;9.10;;;;;;;;;;6290453;22;20198;-91
2023/03/19 19:59:48;;;;;;;17.88;8.77;;;;;;;;;;6291418;22;20173;-88
2023/03/19 20:02:53;;;;;;;18.90;8.85;;;;;;;;;;6291871;22;20232;-88
2023/03/19 20:05:59;;;;;;;18.17;9.00;;;;;;;;;;6288479;22;20165;-91
2023/03/19 20:09:05;;;;;;;14.98;7.60;;;;;;;;;;6289459;22;20165;-90
2023/03/19 20:12:21;;;;;;;15.25;6.93;;;;;;;;;;6272222;22;20205;-88
2023/03/19 20:15:53;;;;;;;16.83;7.68;;;;;;;;;;6291308;22;20213;-89
2023/03/19 20:18:58;;;;;;;15.52;7.07;;;;;;;;;;6291170;22;20189;-89
2023/03/19 20:25:53;;;;;;;14.88;7.35;;;;;;;;;;6289942;22;20181;-90
2023/03/19 20:29:00;;;;;;;16.15;7.30;;;;;;;;;;6289721;22;20280;-91
2023/03/19 20:32:05;;;;;;;13.65;7.00;;;;;;;;;;6291568;22;20174;-88
2023/03/19 20:35:15;;;;;;;17.92;7.28;;;;;;;;;;6289475;22;20249;-88
2023/03/19 20:38:21;;;;;;;18.70;7.47;;;;;;;;;;6290089;22;20293;-90
2023/03/19 20:41:27;;;;;;;20.40;7.40;;;;;;;;;;6270154;22;20167;-90
2023/03/19 20:44:33;;;;;;;17.17;7.53;;;;;;;;;;6287041;22;20273;-90
2023/03/19 20:47:38;;;;;;;21.90;9.07;;;;;;;;;;6287765;22;20170;-91
2023/03/19 20:50:45;;;;;;;16.50;7.57;;;;;;;;;;6287297;22;20644;-91
2023/03/19 20:53:50;;;;;;;19.48;7.95;;;;;;;;;;6288964;22;20529;-87
2023/03/19 20:56:57;;;;;;;18.23;8.38;;;;;;;;;;6290171;22;20621;-89
2023/03/19 21:00:12;;;;;;;19.92;8.32;;;;;;;;;;6288660;22;20257;-90
2023/03/19 21:03:27;;;;;;;16.55;8.18;;;;;;;;;;6291712;22;20276;-88
2023/03/19 21:06:32;;;;;;;15.10;8.00;;;;;;;;;;6293265;22;20166;-89
2023/03/19 21:09:42;;;;;;;14.25;6.65;;;;;;;;;;6294137;22;20170;-89
2023/03/19 21:12:48;;;;;;;14.13;7.25;;;;;;;;;;6292455;22;20154;-87
2023/03/19 21:15:55;;;;;;;16.17;7.38;;;;;;;;;;6292370;22;20150;-89
2023/03/19 21:19:00;;;;;;;11.48;6.22;;;;;;;;;;6292714;22;20166;-90
2023/03/19 21:22:07;;;;;;;15.70;6.60;;;;;;;;;;6290618;22;20166;-89
2023/03/19 21:25:16;;;;;;;14.45;6.93;;;;;;;;;;6290898;22;20261;-91
2023/03/19 21:28:24;;;;;;;15.18;6.85;;;;;;;;;;6290111;22;20153;-90
2023/03/19 21:31:32;;;;;;;12.60;6.78;;;;;;;;;;6291186;22;20154;-89
2023/03/19 21:34:37;;;;;;;15.02;7.50;;;;;;;;;;6290879;22;20256;-91
2023/03/19 21:37:42;;;;;;;17.83;8.40;;;;;;;;;;6289331;22;20166;-91
2023/03/19 21:40:47;;;;;;;22.88;10.02;;;;;;;;;;6288470;22;20209;-88
2023/03/19 21:43:53;;;;;;;18.80;8.38;;;;;;;;;;6270223;22;20193;-87
2023/03/19 21:47:01;;;;;;;17.80;9.15;;;;;;;;;;6290400;22;20169;-89
2023/03/19 21:50:07;;;;;;;19.98;8.90;;;;;;;;;;6288938;22;20166;-89
2023/03/19 21:53:12;;;;;;;19.05;8.90;;;;;;;;;;6288623;22;20162;-91
2023/03/19 21:56:21;;;;;;;18.38;8.40;;;;;;;;;;6288716;22;20173;-88
2023/03/19 21:59:27;;;;;;;16.70;7.50;;;;;;;;;;6287475;22;20162;-90
2023/03/19 22:02:39;;;;;;;12.02;6.28;;;;;;;;;;6287853;22;20185;-89
2023/03/19 22:05:44;;;;;;;16.17;6.65;;;;;;;;;;6287390;22;20293;-90
2023/03/19 22:08:52;;;;;;;15.45;7.63;;;;;;;;;;6287157;22;20166;-88
2023/03/19 22:11:57;;;;;;;17.13;8.00;;;;;;;;;;6286773;22;20165;-88
2023/03/19 22:15:02;;;;;;;16.83;8.13;;;;;;;;;;6287254;22;20180;-87
2023/03/19 22:18:13;;;;;;;16.02;7.45;;;;;;;;;;6287843;22;20264;-91